sensor_id;sensor_type;location;lat;lon;timestamp;pressure;altitude;pressure_sealevel;temperature;humidity
48364;BME280;34170;54.364;18.582;2022-10-16T00:01:28;99973.78;;;11.28;100.00
48364;BME280;34170;54.364;18.582;2022-10-16T00:03:57;99967.56;;;11.28;100.00
48364;BME280;34170;54.364;18.582;2022-10-16T00:06:25;99972.28;;;11.34;100.00
48364;BME280;34170;54.364;18.582;2022-10-16T00:08:54;99965.41;;;11.31;100.00
48364;BME280;34170;54.364;18.582;2022-10-16T00:11:24;99967.97;;;11.41;100.00
48364;BME280;34170;54.364;18.582;2022-10-16T00:13:56;99965.78;;;11.36;100.00
48364;BME280;34170;54.364;18.582;2022-10-16T00:16:24;99971.72;;;11.48;100.00
48364;BME280;34170;54.364;18.582;2022-10-16T00:18:51;99978.88;;;11.57;100.00
48364;BME280;34170;54.364;18.582;2022-10-16T00:21:22;99967.06;;;11.58;100.00
48364;BME280;34170;54.364;18.582;2022-10-16T00:24:09;99973.19;;;11.69;100.00
48364;BME280;34170;54.364;18.582;2022-10-16T00:26:37;99960.47;;;11.53;100.00
48364;BME280;34170;54.364;18.582;2022-10-16T00:29:06;99970.06;;;11.55;100.00
48364;BME280;34170;54.364;18.582;2022-10-16T00:31:34;99959.13;;;11.49;100.00
48364;BME280;34170;54.364;18.582;2022-10-16T00:34:01;99958.22;;;11.40;100.00
48364;BME280;34170;54.364;18.582;2022-10-16T00:36:28;99960.53;;;11.61;100.00
48364;BME280;34170;54.364;18.582;2022-10-16T00:38:57;99971.34;;;11.69;100.00
48364;BME280;34170;54.364;18.582;2022-10-16T00:41:32;99977.25;;;11.73;100.00
48364;BME280;34170;54.364;18.582;2022-10-16T00:44:01;99973.94;;;11.79;100.00
48364;BME280;34170;54.364;18.582;2022-10-16T00:46:40;99993.94;;;12.02;100.00
48364;BME280;34170;54.364;18.582;2022-10-16T00:49:14;99991.59;;;12.08;100.00
48364;BME280;34170;54.364;18.582;2022-10-16T00:51:50;99991.69;;;12.32;100.00
48364;BME280;34170;54.364;18.582;2022-10-16T00:54:22;99995.31;;;12.57;100.00
48364;BME280;34170;54.364;18.582;2022-10-16T00:56:51;99984.50;;;12.66;100.00
48364;BME280;34170;54.364;18.582;2022-10-16T00:59:24;99993.63;;;12.73;100.00
48364;BME280;34170;54.364;18.582;2022-10-16T01:01:53;99995.84;;;12.77;100.00
48364;BME280;34170;54.364;18.582;2022-10-16T01:04:20;99990.13;;;12.97;100.00
48364;BME280;34170;54.364;18.582;2022-10-16T01:09:42;99989.09;;;12.82;100.00
48364;BME280;34170;54.364;18.582;2022-10-16T01:12:30;99980.84;;;12.91;100.00
48364;BME280;34170;54.364;18.582;2022-10-16T01:15:26;99979.47;;;12.87;100.00
48364;BME280;34170;54.364;18.582;2022-10-16T01:18:02;99982.16;;;12.87;100.00
48364;BME280;34170;54.364;18.582;2022-10-16T01:23:36;99984.38;;;13.00;100.00
48364;BME280;34170;54.364;18.582;2022-10-16T01:31:30;99983.84;;;12.96;100.00
48364;BME280;34170;54.364;18.582;2022-10-16T01:34:33;99988.59;;;12.94;100.00
48364;BME280;34170;54.364;18.582;2022-10-16T01:37:06;99988.41;;;12.96;100.00
48364;BME280;34170;54.364;18.582;2022-10-16T01:39:38;99997.88;;;13.08;100.00
48364;BME280;34170;54.364;18.582;2022-10-16T01:42:11;100004.97;;;13.18;100.00
48364;BME280;34170;54.364;18.582;2022-10-16T01:44:40;100002.44;;;13.08;100.00
48364;BME280;34170;54.364;18.582;2022-10-16T01:47:10;99993.00;;;13.20;100.00
48364;BME280;34170;54.364;18.582;2022-10-16T01:49:40;99999.03;;;13.30;100.00
48364;BME280;34170;54.364;18.582;2022-10-16T01:52:15;100001.78;;;13.39;100.00
48364;BME280;34170;54.364;18.582;2022-10-16T01:54:47;100007.19;;;13.39;100.00
48364;BME280;34170;54.364;18.582;2022-10-16T01:57:16;99991.63;;;13.41;100.00
48364;BME280;34170;54.364;18.582;2022-10-16T01:59:48;99994.53;;;13.31;100.00
48364;BME280;34170;54.364;18.582;2022-10-16T02:02:18;100001.06;;;13.45;100.00
48364;BME280;34170;54.364;18.582;2022-10-16T02:04:51;99995.50;;;13.46;100.00
48364;BME280;34170;54.364;18.582;2022-10-16T02:07:20;99998.22;;;13.46;100.00
48364;BME280;34170;54.364;18.582;2022-10-16T02:09:47;99985.72;;;13.37;100.00
48364;BME280;34170;54.364;18.582;2022-10-16T02:12:21;99982.34;;;13.27;100.00
48364;BME280;34170;54.364;18.582;2022-10-16T02:14:51;99979.81;;;13.17;100.00
48364;BME280;34170;54.364;18.582;2022-10-16T02:17:20;99978.16;;;13.08;100.00
48364;BME280;34170;54.364;18.582;2022-10-16T02:19:49;99986.06;;;12.93;100.00
48364;BME280;34170;54.364;18.582;2022-10-16T02:22:39;99986.56;;;12.72;100.00
48364;BME280;34170;54.364;18.582;2022-10-16T02:30:41;99979.94;;;12.58;100.00
48364;BME280;34170;54.364;18.582;2022-10-16T02:33:11;99988.38;;;12.47;100.00
48364;BME280;34170;54.364;18.582;2022-10-16T02:35:41;99979.09;;;12.49;100.00
48364;BME280;34170;54.364;18.582;2022-10-16T02:38:11;99979.25;;;12.48;100.00
48364;BME280;34170;54.364;18.582;2022-10-16T02:40:39;99974.84;;;12.38;100.00
48364;BME280;34170;54.364;18.582;2022-10-16T02:43:08;99981.28;;;12.46;100.00
48364;BME280;34170;54.364;18.582;2022-10-16T02:45:36;99982.63;;;12.42;100.00
48364;BME280;34170;54.364;18.582;2022-10-16T02:48:03;99977.38;;;12.40;100.00
48364;BME280;34170;54.364;18.582;2022-10-16T02:50:31;99980.09;;;12.40;100.00
48364;BME280;34170;54.364;18.582;2022-10-16T02:52:58;99983.47;;;12.42;100.00
48364;BME280;34170;54.364;18.582;2022-10-16T02:55:26;99972.00;;;12.48;100.00
48364;BME280;34170;54.364;18.582;2022-10-16T02:57:54;99986.66;;;12.46;100.00
48364;BME280;34170;54.364;18.582;2022-10-16T03:00:22;99992.25;;;12.52;100.00
48364;BME280;34170;54.364;18.582;2022-10-16T03:02:49;99981.94;;;12.48;100.00
48364;BME280;34170;54.364;18.582;2022-10-16T03:05:17;99984.28;;;12.43;100.00
48364;BME280;34170;54.364;18.582;2022-10-16T03:07:44;99978.91;;;12.43;100.00
48364;BME280;34170;54.364;18.582;2022-10-16T03:10:12;99964.06;;;12.38;100.00
48364;BME280;34170;54.364;18.582;2022-10-16T03:12:39;99967.94;;;12.44;100.00
48364;BME280;34170;54.364;18.582;2022-10-16T03:15:07;99965.56;;;12.41;100.00
48364;BME280;34170;54.364;18.582;2022-10-16T03:17:34;99964.56;;;12.42;100.00
48364;BME280;34170;54.364;18.582;2022-10-16T03:20:02;99963.56;;;12.35;100.00
48364;BME280;34170;54.364;18.582;2022-10-16T03:22:30;99975.84;;;12.37;100.00
48364;BME280;34170;54.364;18.582;2022-10-16T03:24:57;99970.13;;;12.40;100.00
48364;BME280;34170;54.364;18.582;2022-10-16T03:27:25;99974.69;;;12.40;100.00
48364;BME280;34170;54.364;18.582;2022-10-16T03:29:52;99972.50;;;12.52;100.00
48364;BME280;34170;54.364;18.582;2022-10-16T03:32:19;99985.66;;;12.55;100.00
48364;BME280;34170;54.364;18.582;2022-10-16T03:34:47;99979.28;;;12.64;100.00
48364;BME280;34170;54.364;18.582;2022-10-16T03:37:14;99975.41;;;12.75;100.00
48364;BME280;34170;54.364;18.582;2022-10-16T03:39:42;99972.56;;;12.85;100.00
48364;BME280;34170;54.364;18.582;2022-10-16T03:42:09;99962.44;;;12.87;100.00
48364;BME280;34170;54.364;18.582;2022-10-16T03:44:36;99978.63;;;12.70;100.00
48364;BME280;34170;54.364;18.582;2022-10-16T03:47:03;99969.69;;;12.70;100.00
48364;BME280;34170;54.364;18.582;2022-10-16T03:49:31;99969.34;;;12.73;100.00
48364;BME280;34170;54.364;18.582;2022-10-16T03:51:58;99968.16;;;12.67;100.00
48364;BME280;34170;54.364;18.582;2022-10-16T03:54:25;99976.63;;;12.81;100.00
48364;BME280;34170;54.364;18.582;2022-10-16T03:56:53;99974.91;;;12.80;100.00
48364;BME280;34170;54.364;18.582;2022-10-16T03:59:20;99981.31;;;12.78;100.00
48364;BME280;34170;54.364;18.582;2022-10-16T04:01:47;99969.84;;;12.76;100.00
48364;BME280;34170;54.364;18.582;2022-10-16T04:04:15;99960.25;;;12.74;100.00
48364;BME280;34170;54.364;18.582;2022-10-16T04:06:42;99970.88;;;12.75;100.00
48364;BME280;34170;54.364;18.582;2022-10-16T04:09:09;99974.59;;;12.66;100.00
48364;BME280;34170;54.364;18.582;2022-10-16T04:11:36;99983.50;;;12.75;100.00
48364;BME280;34170;54.364;18.582;2022-10-16T04:14:04;99991.09;;;12.71;100.00
48364;BME280;34170;54.364;18.582;2022-10-16T04:16:31;99991.13;;;12.80;100.00
48364;BME280;34170;54.364;18.582;2022-10-16T04:18:59;99996.34;;;12.89;100.00
48364;BME280;34170;54.364;18.582;2022-10-16T04:21:26;99988.94;;;12.83;100.00
48364;BME280;34170;54.364;18.582;2022-10-16T04:23:53;99988.59;;;12.94;100.00
48364;BME280;34170;54.364;18.582;2022-10-16T04:26:20;99996.34;;;12.97;100.00
48364;BME280;34170;54.364;18.582;2022-10-16T04:28:48;99991.13;;;12.96;100.00
48364;BME280;34170;54.364;18.582;2022-10-16T04:31:15;100000.41;;;13.02;100.00
48364;BME280;34170;54.364;18.582;2022-10-16T04:33:43;99997.03;;;12.91;100.00
48364;BME280;34170;54.364;18.582;2022-10-16T04:36:10;99982.66;;;12.74;100.00
48364;BME280;34170;54.364;18.582;2022-10-16T04:38:38;100004.44;;;12.81;100.00
48364;BME280;34170;54.364;18.582;2022-10-16T04:41:07;100003.91;;;12.86;100.00
48364;BME280;34170;54.364;18.582;2022-10-16T04:43:35;100002.22;;;12.76;100.00
48364;BME280;34170;54.364;18.582;2022-10-16T04:46:02;100000.84;;;12.64;100.00
48364;BME280;34170;54.364;18.582;2022-10-16T04:48:31;99995.50;;;12.72;100.00
48364;BME280;34170;54.364;18.582;2022-10-16T04:50:59;99987.88;;;12.68;100.00
48364;BME280;34170;54.364;18.582;2022-10-16T04:53:27;100009.97;;;12.71;100.00
48364;BME280;34170;54.364;18.582;2022-10-16T04:55:54;100003.09;;;12.77;100.00
48364;BME280;34170;54.364;18.582;2022-10-16T04:58:22;100007.31;;;12.80;100.00
48364;BME280;34170;54.364;18.582;2022-10-16T05:00:50;100000.56;;;12.92;100.00
48364;BME280;34170;54.364;18.582;2022-10-16T05:03:17;99999.38;;;12.78;100.00
48364;BME280;34170;54.364;18.582;2022-10-16T05:05:45;99993.47;;;12.66;100.00
48364;BME280;34170;54.364;18.582;2022-10-16T05:08:14;99996.31;;;12.73;100.00
48364;BME280;34170;54.364;18.582;2022-10-16T05:10:43;100004.94;;;12.76;100.00
48364;BME280;34170;54.364;18.582;2022-10-16T05:13:11;100007.81;;;12.83;100.00
48364;BME280;34170;54.364;18.582;2022-10-16T05:15:38;99996.19;;;12.83;100.00
48364;BME280;34170;54.364;18.582;2022-10-16T05:18:06;100002.94;;;12.87;100.00
48364;BME280;34170;54.364;18.582;2022-10-16T05:20:33;100005.94;;;12.84;100.00
48364;BME280;34170;54.364;18.582;2022-10-16T05:23:00;100000.75;;;12.99;100.00
48364;BME280;34170;54.364;18.582;2022-10-16T05:25:28;100008.66;;;12.84;100.00
48364;BME280;34170;54.364;18.582;2022-10-16T05:27:55;100008.66;;;12.84;100.00
48364;BME280;34170;54.364;18.582;2022-10-16T05:30:23;100009.00;;;12.89;100.00
48364;BME280;34170;54.364;18.582;2022-10-16T05:32:50;100013.91;;;12.93;100.00
48364;BME280;34170;54.364;18.582;2022-10-16T05:35:18;100022.34;;;12.99;100.00
48364;BME280;34170;54.364;18.582;2022-10-16T05:37:46;100017.78;;;12.99;100.00
48364;BME280;34170;54.364;18.582;2022-10-16T05:40:14;100018.44;;;12.93;100.00
48364;BME280;34170;54.364;18.582;2022-10-16T05:42:41;100020.47;;;12.91;100.00
48364;BME280;34170;54.364;18.582;2022-10-16T05:45:10;100010.34;;;12.85;100.00
48364;BME280;34170;54.364;18.582;2022-10-16T05:47:38;100025.53;;;12.94;100.00
48364;BME280;34170;54.364;18.582;2022-10-16T05:50:06;100025.03;;;12.90;100.00
48364;BME280;34170;54.364;18.582;2022-10-16T05:52:34;100026.22;;;12.96;100.00
48364;BME280;34170;54.364;18.582;2022-10-16T05:55:01;100022.50;;;13.05;100.00
48364;BME280;34170;54.364;18.582;2022-10-16T05:57:28;100031.97;;;13.09;100.00
48364;BME280;34170;54.364;18.582;2022-10-16T05:59:55;100048.16;;;13.26;100.00
48364;BME280;34170;54.364;18.582;2022-10-16T06:02:23;100035.19;;;13.13;100.00
48364;BME280;34170;54.364;18.582;2022-10-16T06:04:51;100043.44;;;13.20;100.00
48364;BME280;34170;54.364;18.582;2022-10-16T06:07:21;100057.31;;;13.33;100.00
48364;BME280;34170;54.364;18.582;2022-10-16T06:09:49;100050.88;;;13.34;100.00
48364;BME280;34170;54.364;18.582;2022-10-16T06:12:17;100053.94;;;13.47;100.00
48364;BME280;34170;54.364;18.582;2022-10-16T06:14:45;100058.13;;;13.25;100.00
48364;BME280;34170;54.364;18.582;2022-10-16T06:17:16;100067.44;;;13.31;100.00
48364;BME280;34170;54.364;18.582;2022-10-16T06:19:43;100070.13;;;13.39;100.00
48364;BME280;34170;54.364;18.582;2022-10-16T06:22:10;100076.38;;;13.48;100.00
48364;BME280;34170;54.364;18.582;2022-10-16T06:24:38;100076.88;;;13.51;100.00
48364;BME280;34170;54.364;18.582;2022-10-16T06:27:05;100086.03;;;13.50;100.00
48364;BME280;34170;54.364;18.582;2022-10-16T06:29:33;100105.09;;;13.65;100.00
48364;BME280;34170;54.364;18.582;2022-10-16T06:32:00;100101.34;;;13.66;100.00
48364;BME280;34170;54.364;18.582;2022-10-16T06:34:28;100096.13;;;13.73;100.00
48364;BME280;34170;54.364;18.582;2022-10-16T06:36:55;100099.00;;;13.71;100.00
48364;BME280;34170;54.364;18.582;2022-10-16T06:39:22;100106.94;;;13.73;100.00
48364;BME280;34170;54.364;18.582;2022-10-16T06:41:50;100101.03;;;13.61;100.00
48364;BME280;34170;54.364;18.582;2022-10-16T06:44:17;100103.56;;;13.54;100.00
48364;BME280;34170;54.364;18.582;2022-10-16T06:46:44;100099.50;;;13.59;100.00
48364;BME280;34170;54.364;18.582;2022-10-16T06:49:12;100101.53;;;13.57;100.00
48364;BME280;34170;54.364;18.582;2022-10-16T06:51:39;100106.78;;;13.58;100.00
48364;BME280;34170;54.364;18.582;2022-10-16T06:54:09;100110.50;;;13.65;100.00
48364;BME280;34170;54.364;18.582;2022-10-16T06:56:37;100103.41;;;13.56;100.00
48364;BME280;34170;54.364;18.582;2022-10-16T06:59:04;100102.22;;;13.42;100.00
48364;BME280;34170;54.364;18.582;2022-10-16T07:01:32;100106.19;;;13.05;100.00
48364;BME280;34170;54.364;18.582;2022-10-16T07:04:00;100103.84;;;13.19;100.00
48364;BME280;34170;54.364;18.582;2022-10-16T07:06:31;100105.72;;;13.18;100.00
48364;BME280;34170;54.364;18.582;2022-10-16T07:09:01;100109.91;;;13.12;100.00
48364;BME280;34170;54.364;18.582;2022-10-16T07:11:29;100103.03;;;13.18;100.00
48364;BME280;34170;54.364;18.582;2022-10-16T07:13:56;100108.63;;;13.33;100.00
48364;BME280;34170;54.364;18.582;2022-10-16T07:16:26;100096.13;;;13.32;100.00
48364;BME280;34170;54.364;18.582;2022-10-16T07:18:55;100092.88;;;13.28;100.00
48364;BME280;34170;54.364;18.582;2022-10-16T07:21:29;100097.13;;;13.14;100.00
48364;BME280;34170;54.364;18.582;2022-10-16T07:24:00;100109.09;;;13.20;100.00
48364;BME280;34170;54.364;18.582;2022-10-16T07:26:34;100106.28;;;13.38;100.00
48364;BME280;34170;54.364;18.582;2022-10-16T07:29:02;100109.44;;;13.25;100.00
48364;BME280;34170;54.364;18.582;2022-10-16T07:31:31;100122.13;;;13.33;100.00
48364;BME280;34170;54.364;18.582;2022-10-16T07:33:59;100123.84;;;13.50;100.00
48364;BME280;34170;54.364;18.582;2022-10-16T07:36:27;100122.75;;;13.27;100.00
48364;BME280;34170;54.364;18.582;2022-10-16T07:38:55;100132.72;;;13.26;100.00
48364;BME280;34170;54.364;18.582;2022-10-16T07:41:27;100125.16;;;13.46;100.00
48364;BME280;34170;54.364;18.582;2022-10-16T07:43:55;100131.59;;;13.37;100.00
48364;BME280;34170;54.364;18.582;2022-10-16T07:46:23;100144.25;;;13.37;100.00
48364;BME280;34170;54.364;18.582;2022-10-16T07:48:50;100124.16;;;13.31;100.00
48364;BME280;34170;54.364;18.582;2022-10-16T07:51:20;100140.16;;;13.24;100.00
48364;BME280;34170;54.364;18.582;2022-10-16T07:53:48;100142.06;;;13.57;100.00
48364;BME280;34170;54.364;18.582;2022-10-16T07:56:17;100133.94;;;13.73;100.00
48364;BME280;34170;54.364;18.582;2022-10-16T07:58:45;100139.53;;;13.63;100.00
48364;BME280;34170;54.364;18.582;2022-10-16T08:01:14;100135.97;;;13.87;100.00
48364;BME280;34170;54.364;18.582;2022-10-16T08:03:46;100136.94;;;14.11;100.00
48364;BME280;34170;54.364;18.582;2022-10-16T08:06:14;100154.69;;;14.14;100.00
48364;BME280;34170;54.364;18.582;2022-10-16T08:08:42;100164.66;;;14.21;100.00
48364;BME280;34170;54.364;18.582;2022-10-16T08:11:09;100159.94;;;14.15;100.00
48364;BME280;34170;54.364;18.582;2022-10-16T08:13:37;100178.72;;;14.17;100.00
48364;BME280;34170;54.364;18.582;2022-10-16T08:16:05;100184.44;;;14.14;100.00
48364;BME280;34170;54.364;18.582;2022-10-16T08:18:35;100179.03;;;14.22;100.00
48364;BME280;34170;54.364;18.582;2022-10-16T08:21:04;100180.84;;;14.38;100.00
48364;BME280;34170;54.364;18.582;2022-10-16T08:23:32;100187.25;;;14.45;100.00
48364;BME280;34170;54.364;18.582;2022-10-16T08:26:05;100191.66;;;14.54;100.00
48364;BME280;34170;54.364;18.582;2022-10-16T08:28:34;100188.94;;;14.46;100.00
48364;BME280;34170;54.364;18.582;2022-10-16T08:31:13;100191.66;;;14.54;100.00
48364;BME280;34170;54.364;18.582;2022-10-16T08:33:42;100187.31;;;14.12;100.00
48364;BME280;34170;54.364;18.582;2022-10-16T08:36:11;100193.19;;;14.32;100.00
48364;BME280;34170;54.364;18.582;2022-10-16T08:38:38;100197.78;;;14.32;100.00
48364;BME280;34170;54.364;18.582;2022-10-16T08:50:02;100202.81;;;14.51;100.00
48364;BME280;34170;54.364;18.582;2022-10-16T08:52:39;100194.19;;;14.47;100.00
48364;BME280;34170;54.364;18.582;2022-10-16T08:55:11;100206.50;;;14.50;100.00
48364;BME280;34170;54.364;18.582;2022-10-16T08:57:44;100203.13;;;14.56;100.00
48364;BME280;34170;54.364;18.582;2022-10-16T09:00:14;100208.53;;;14.64;100.00
48364;BME280;34170;54.364;18.582;2022-10-16T09:02:51;100218.06;;;14.27;100.00
48364;BME280;34170;54.364;18.582;2022-10-16T09:12:05;100211.56;;;14.70;100.00
48364;BME280;34170;54.364;18.582;2022-10-16T09:16:47;100198.91;;;15.10;100.00
48364;BME280;34170;54.364;18.582;2022-10-16T09:19:57;100210.81;;;14.92;100.00
48364;BME280;34170;54.364;18.582;2022-10-16T09:22:27;100201.66;;;14.93;100.00
48364;BME280;34170;54.364;18.582;2022-10-16T09:24:59;100211.72;;;14.76;100.00
48364;BME280;34170;54.364;18.582;2022-10-16T09:27:27;100217.63;;;14.88;100.00
48364;BME280;34170;54.364;18.582;2022-10-16T09:29:55;100222.00;;;14.89;100.00
48364;BME280;34170;54.364;18.582;2022-10-16T09:32:27;100221.91;;;14.49;100.00
48364;BME280;34170;54.364;18.582;2022-10-16T09:34:55;100213.28;;;14.71;100.00
48364;BME280;34170;54.364;18.582;2022-10-16T09:37:24;100216.50;;;14.66;100.00
48364;BME280;34170;54.364;18.582;2022-10-16T09:39:54;100221.19;;;14.80;100.00
48364;BME280;34170;54.364;18.582;2022-10-16T09:42:31;100214.75;;;14.81;100.00
48364;BME280;34170;54.364;18.582;2022-10-16T09:45:00;100233.38;;;14.84;100.00
48364;BME280;34170;54.364;18.582;2022-10-16T09:47:29;100229.78;;;14.92;100.00
48364;BME280;34170;54.364;18.582;2022-10-16T09:49:59;100237.75;;;14.85;100.00
48364;BME280;34170;54.364;18.582;2022-10-16T09:52:29;100238.59;;;14.86;100.00
48364;BME280;34170;54.364;18.582;2022-10-16T09:55:03;100231.19;;;14.72;100.00
48364;BME280;34170;54.364;18.582;2022-10-16T09:57:52;100235.59;;;14.73;100.00
48364;BME280;34170;54.364;18.582;2022-10-16T10:00:21;100246.41;;;14.81;100.00
48364;BME280;34170;54.364;18.582;2022-10-16T10:02:49;100239.56;;;14.93;100.00
48364;BME280;34170;54.364;18.582;2022-10-16T10:05:22;100242.59;;;14.98;100.00
48364;BME280;34170;54.364;18.582;2022-10-16T10:07:56;100244.97;;;15.01;100.00
48364;BME280;34170;54.364;18.582;2022-10-16T10:10:28;100244.97;;;15.01;100.00
48364;BME280;34170;54.364;18.582;2022-10-16T10:12:56;100254.91;;;15.09;100.00
48364;BME280;34170;54.364;18.582;2022-10-16T10:15:26;100255.28;;;15.06;100.00
48364;BME280;34170;54.364;18.582;2022-10-16T10:17:56;100262.03;;;15.10;100.00
48364;BME280;34170;54.364;18.582;2022-10-16T10:20:27;100266.13;;;15.06;100.00
48364;BME280;34170;54.364;18.582;2022-10-16T10:22:56;100266.25;;;15.13;100.00
48364;BME280;34170;54.364;18.582;2022-10-16T10:36:40;100271.97;;;15.26;100.00
48364;BME280;34170;54.364;18.582;2022-10-16T10:45:01;100279.19;;;15.34;100.00
48364;BME280;34170;54.364;18.582;2022-10-16T10:47:47;100277.63;;;15.39;100.00
48364;BME280;34170;54.364;18.582;2022-10-16T10:55:51;100279.31;;;15.72;100.00
48364;BME280;34170;54.364;18.582;2022-10-16T10:58:43;100278.09;;;15.82;100.00
48364;BME280;34170;54.364;18.582;2022-10-16T11:01:45;100272.28;;;15.94;100.00
48364;BME280;34170;54.364;18.582;2022-10-16T11:06:49;100285.09;;;16.23;100.00
48364;BME280;34170;54.364;18.582;2022-10-16T11:09:34;100278.44;;;16.26;100.00
48364;BME280;34170;54.364;18.582;2022-10-16T11:12:18;100284.53;;;16.66;100.00
48364;BME280;34170;54.364;18.582;2022-10-16T11:17:28;100275.47;;;17.33;100.00
48364;BME280;34170;54.364;18.582;2022-10-16T11:25:47;100281.81;;;16.66;100.00
48364;BME280;34170;54.364;18.582;2022-10-16T11:28:22;100280.75;;;16.90;100.00
48364;BME280;34170;54.364;18.582;2022-10-16T11:30:59;100284.50;;;17.04;100.00
48364;BME280;34170;54.364;18.582;2022-10-16T11:47:05;100282.66;;;16.81;100.00
48364;BME280;34170;54.364;18.582;2022-10-16T11:50:01;100285.13;;;16.76;100.00
48364;BME280;34170;54.364;18.582;2022-10-16T11:52:39;100289.69;;;16.75;100.00
48364;BME280;34170;54.364;18.582;2022-10-16T11:57:48;100287.03;;;16.90;100.00
48364;BME280;34170;54.364;18.582;2022-10-16T12:08:24;100294.31;;;17.34;100.00
48364;BME280;34170;54.364;18.582;2022-10-16T12:10:52;100296.69;;;17.59;100.00
48364;BME280;34170;54.364;18.582;2022-10-16T12:18:33;100299.91;;;17.99;100.00
48364;BME280;34170;54.364;18.582;2022-10-16T12:21:00;100308.53;;;18.03;100.00
48364;BME280;34170;54.364;18.582;2022-10-16T12:23:51;100301.47;;;17.87;100.00
48364;BME280;34170;54.364;18.582;2022-10-16T12:26:31;100302.19;;;17.81;100.00
48364;BME280;34170;54.364;18.582;2022-10-16T12:29:28;100312.34;;;18.08;100.00
48364;BME280;34170;54.364;18.582;2022-10-16T12:31:56;100312.34;;;18.08;100.00
48364;BME280;34170;54.364;18.582;2022-10-16T12:34:32;100308.72;;;18.23;100.00
48364;BME280;34170;54.364;18.582;2022-10-16T12:37:13;100304.03;;;18.17;100.00
48364;BME280;34170;54.364;18.582;2022-10-16T12:39:42;100309.09;;;17.98;100.00
48364;BME280;34170;54.364;18.582;2022-10-16T12:45:01;100306.69;;;17.22;100.00
48364;BME280;34170;54.364;18.582;2022-10-16T12:49:59;100320.19;;;17.15;100.00
48364;BME280;34170;54.364;18.582;2022-10-16T12:52:37;100319.34;;;17.15;100.00
48364;BME280;34170;54.364;18.582;2022-10-16T12:55:15;100309.78;;;17.19;100.00
48364;BME280;34170;54.364;18.582;2022-10-16T12:58:31;100322.91;;;17.30;100.00
48364;BME280;34170;54.364;18.582;2022-10-16T13:01:10;100329.75;;;17.26;100.00
48364;BME280;34170;54.364;18.582;2022-10-16T13:06:34;100319.16;;;17.31;100.00
48364;BME280;34170;54.364;18.582;2022-10-16T13:12:30;100335.13;;;17.71;100.00
48364;BME280;34170;54.364;18.582;2022-10-16T13:15:12;100328.41;;;17.52;100.00
48364;BME280;34170;54.364;18.582;2022-10-16T13:18:03;100329.06;;;17.54;100.00
48364;BME280;34170;54.364;18.582;2022-10-16T13:20:39;100327.59;;;17.37;100.00
48364;BME280;34170;54.364;18.582;2022-10-16T13:23:23;100328.97;;;17.32;100.00
48364;BME280;34170;54.364;18.582;2022-10-16T13:26:35;100331.13;;;17.22;100.00
48364;BME280;34170;54.364;18.582;2022-10-16T13:29:00;100327.47;;;17.15;100.00
48364;BME280;34170;54.364;18.582;2022-10-16T13:31:28;100339.59;;;17.12;100.00
48364;BME280;34170;54.364;18.582;2022-10-16T13:33:58;100342.47;;;17.11;100.00
48364;BME280;34170;54.364;18.582;2022-10-16T13:36:29;100348.56;;;17.13;100.00
48364;BME280;34170;54.364;18.582;2022-10-16T13:39:10;100343.59;;;17.02;100.00
48364;BME280;34170;54.364;18.582;2022-10-16T13:41:38;100346.22;;;16.95;100.00
48364;BME280;34170;54.364;18.582;2022-10-16T13:44:16;100352.97;;;16.99;100.00
48364;BME280;34170;54.364;18.582;2022-10-16T13:46:45;100355.94;;;16.89;100.00
48364;BME280;34170;54.364;18.582;2022-10-16T13:49:17;100369.47;;;16.98;100.00
48364;BME280;34170;54.364;18.582;2022-10-16T13:51:59;100356.44;;;16.93;100.00
48364;BME280;34170;54.364;18.582;2022-10-16T13:54:28;100355.94;;;16.89;100.00
48364;BME280;34170;54.364;18.582;2022-10-16T13:57:04;100359.72;;;16.88;100.00
48364;BME280;34170;54.364;18.582;2022-10-16T13:59:49;100362.69;;;16.93;100.00
48364;BME280;34170;54.364;18.582;2022-10-16T14:04:53;100363.81;;;16.84;100.00
48364;BME280;34170;54.364;18.582;2022-10-16T14:07:28;100372.00;;;16.76;100.00
48364;BME280;34170;54.364;18.582;2022-10-16T14:10:05;100376.56;;;16.84;100.00
48364;BME280;34170;54.364;18.582;2022-10-16T14:12:34;100381.06;;;16.91;100.00
48364;BME280;34170;54.364;18.582;2022-10-16T14:15:02;100380.97;;;16.85;100.00
48364;BME280;34170;54.364;18.582;2022-10-16T14:17:31;100383.41;;;16.71;100.00
48364;BME280;34170;54.364;18.582;2022-10-16T14:20:04;100370.63;;;16.57;100.00
48364;BME280;34170;54.364;18.582;2022-10-16T14:22:37;100382.63;;;16.63;100.00
48364;BME280;34170;54.364;18.582;2022-10-16T14:28:02;100380.97;;;16.38;100.00
48364;BME280;34170;54.364;18.582;2022-10-16T14:30:34;100370.00;;;16.32;100.00
48364;BME280;34170;54.364;18.582;2022-10-16T14:33:18;100380.22;;;16.22;100.00
48364;BME280;34170;54.364;18.582;2022-10-16T14:36:05;100384.34;;;16.41;100.00
48364;BME280;34170;54.364;18.582;2022-10-16T14:38:33;100389.16;;;16.30;100.00
48364;BME280;34170;54.364;18.582;2022-10-16T14:41:01;100397.34;;;16.45;100.00
48364;BME280;34170;54.364;18.582;2022-10-16T14:43:34;100396.13;;;16.33;100.00
48364;BME280;34170;54.364;18.582;2022-10-16T14:46:12;100396.78;;;16.35;100.00
48364;BME280;34170;54.364;18.582;2022-10-16T14:48:42;100400.38;;;16.27;100.00